Time;durP1;ratioP1;P1;durP2;ratioP2;P2;SDS_P1;SDS_P2;PMS_P1;PMS_P2;Temp;Humidity;BMP_temperature;BMP_pressure;BME280_temperature;BME280_humidity;BME280_pressure;Samples;Min_cycle;Max_cycle;Signal;HPM_P1;HPM_P2
2023/09/03 00:00:13;;;;;;;;;;;;;;;28.65;35.42;101113.78;5075907;28;1028;-26
2023/09/03 00:02:38;;;;;;;;;;;;;;;28.66;35.23;101117.34;5076722;28;1078;-30
2023/09/03 00:05:04;;;;;;;;;;;;;;;28.71;35.11;101114.94;5076478;28;1062;-27
2023/09/03 00:07:30;;;;;;;;;;;;;;;28.69;34.89;101117.81;5076185;28;1967;-27
2023/09/03 00:09:55;;;;;;;;;;;;;;;28.73;35.27;101115.56;5076246;28;1100;-27
2023/09/03 00:12:21;;;;;;;;;;;;;;;28.63;35.36;101115.81;5075825;28;1201;-27
2023/09/03 00:14:46;;;;;;;;;;;;;;;28.70;35.43;101114.06;5076095;28;1047;-27
2023/09/03 00:17:14;;;;;;;;;;;;;;;28.68;35.34;101110.69;5076560;28;1007;-28
2023/09/03 00:19:41;;;;;;;;;;;;;;;28.78;35.04;101107.72;5076186;28;1090;-30
2023/09/03 00:22:06;;;;;;;;;;;;;;;28.71;35.01;101112.22;5076193;28;1027;-26
2023/09/03 00:24:35;;;;;;;;;;;;;;;28.81;34.62;101117.34;5075605;28;1035;-30
2023/09/03 00:27:00;;;;;;;;;;;;;;;28.79;34.98;101114.00;5076065;28;1981;-30
2023/09/03 00:29:26;;;;;;;;;;;;;;;28.71;34.87;101114.94;5076346;28;1158;-29
2023/09/03 00:31:52;;;;;;;;;;;;;;;28.76;34.79;101108.94;5076461;28;1102;-27
2023/09/03 00:34:18;;;;;;;;;;;;;;;28.73;34.93;101111.00;5075959;28;1178;-28
2023/09/03 00:36:44;;;;;;;;;;;;;;;28.74;34.91;101109.13;5075904;28;1087;-31
2023/09/03 00:39:10;;;;;;;;;;;;;;;28.79;34.72;101117.53;5076285;28;1169;-27
2023/09/03 00:41:35;;;;;;;;;;;;;;;28.71;35.06;101104.91;5076003;28;1158;-28
2023/09/03 00:44:03;;;;;;;;;;;;;;;28.79;34.58;101108.56;5058167;28;1287;-28
2023/09/03 00:46:28;;;;;;;;;;;;;;;28.67;34.73;101103.63;5076256;28;1976;-28
2023/09/03 00:48:54;;;;;;;;;;;;;;;28.65;34.94;101105.66;5075654;28;1134;-27
2023/09/03 00:51:20;;;;;;;;;;;;;;;28.67;34.96;101100.06;5058423;28;1130;-27
2023/09/03 00:53:47;;;;;;;;;;;;;;;28.71;34.76;101099.50;5062670;28;1013;-25
2023/09/03 00:56:13;;;;;;;;;;;;;;;28.69;35.08;101103.44;5075945;28;1095;-28
2023/09/03 00:58:39;;;;;;;;;;;;;;;28.60;35.04;101098.09;5076074;28;1039;-26
2023/09/03 01:01:05;;;;;;;;;;;;;;;28.68;34.97;101099.03;5040842;28;2366;-29
2023/09/03 01:03:30;;;;;;;;;;;;;;;28.64;35.22;101104.00;5035866;28;1083;-26
2023/09/03 01:05:56;;;;;;;;;;;;;;;28.66;34.96;101109.22;5036588;28;1965;-27
2023/09/03 01:08:21;;;;;;;;;;;;;;;28.70;34.79;101105.94;5039603;28;1059;-28
2023/09/03 01:11:05;;;;;;;;;;;;;;;28.66;34.97;101103.81;5038497;28;1126;-30
2023/09/03 01:13:52;;;;;;;;;;;;;;;28.66;34.85;101099.22;5039342;28;1153;-27
2023/09/03 01:16:23;;;;;;;;;;;;;;;28.62;34.74;101100.63;5038347;28;1253;-28
2023/09/03 01:18:48;;;;;;;;;;;;;;;28.70;34.71;101095.13;5039616;28;1092;-28
2023/09/03 01:21:25;;;;;;;;;;;;;;;28.63;34.92;101094.19;5038398;28;1111;-25
2023/09/03 01:23:50;;;;;;;;;;;;;;;28.71;34.62;101087.84;5039609;28;1106;-25
2023/09/03 01:26:18;;;;;;;;;;;;;;;28.66;35.09;101088.38;5037354;28;1985;-28
2023/09/03 01:28:44;;;;;;;;;;;;;;;28.65;35.03;101094.00;5039535;28;1110;-25
2023/09/03 01:31:11;;;;;;;;;;;;;;;28.68;35.09;101093.63;5039631;28;1043;-27
2023/09/03 01:33:38;;;;;;;;;;;;;;;28.56;35.10;101093.25;5038894;28;1142;-28
2023/09/03 01:36:09;;;;;;;;;;;;;;;28.65;34.81;101091.28;5037571;28;1094;-28
2023/09/03 01:38:35;;;;;;;;;;;;;;;28.56;34.81;101091.38;5039472;28;921;-26
2023/09/03 01:41:01;;;;;;;;;;;;;;;28.69;34.75;101096.16;5039402;28;1102;-25
2023/09/03 01:43:26;;;;;;;;;;;;;;;28.62;34.86;101100.63;5039369;28;1008;-27
2023/09/03 01:46:01;;;;;;;;;;;;;;;28.70;34.81;101103.25;5038968;28;1910;-27
2023/09/03 01:48:34;;;;;;;;;;;;;;;28.72;34.57;101094.94;5020324;28;1127;-29
2023/09/03 01:51:03;;;;;;;;;;;;;;;28.70;35.02;101092.41;5048674;28;1044;-30
2023/09/03 01:53:29;;;;;;;;;;;;;;;28.58;34.87;101086.63;5041057;28;1150;-25
2023/09/03 01:55:57;;;;;;;;;;;;;;;28.71;34.55;101088.69;5038967;28;1023;-31
2023/09/03 01:58:23;;;;;;;;;;;;;;;28.73;34.35;101089.34;5051459;28;1235;-26
2023/09/03 02:00:49;;;;;;;;;;;;;;;28.65;35.01;101081.31;5020848;28;1641;-26
2023/09/03 02:03:16;;;;;;;;;;;;;;;28.66;34.83;101085.69;5037357;28;1114;-26
2023/09/03 02:05:41;;;;;;;;;;;;;;;28.77;34.41;101083.53;5037156;28;1135;-28
2023/09/03 02:08:07;;;;;;;;;;;;;;;28.72;34.59;101078.69;5038346;28;1910;-28
2023/09/03 02:10:33;;;;;;;;;;;;;;;28.72;34.56;101082.25;5038613;28;984;-27
2023/09/03 02:12:59;;;;;;;;;;;;;;;28.67;34.59;101075.69;5037156;28;1277;-29
2023/09/03 02:15:24;;;;;;;;;;;;;;;28.69;34.77;101070.94;5037343;28;1230;-26
2023/09/03 02:17:50;;;;;;;;;;;;;;;28.70;34.41;101078.88;5037469;28;972;-28
2023/09/03 02:20:16;;;;;;;;;;;;;;;28.58;34.64;101078.50;5038590;28;1185;-26
2023/09/03 02:22:41;;;;;;;;;;;;;;;28.65;34.86;101075.88;5038527;28;1111;-31
2023/09/03 02:25:10;;;;;;;;;;;;;;;28.56;34.70;101074.31;5038020;28;1043;-28
2023/09/03 02:27:35;;;;;;;;;;;;;;;28.71;34.45;101074.31;5036359;28;2517;-30
2023/09/03 02:30:01;;;;;;;;;;;;;;;28.72;34.64;101078.69;5038371;28;1075;-28
2023/09/03 02:32:26;;;;;;;;;;;;;;;28.78;34.43;101079.84;5036943;28;1171;-27
2023/09/03 02:34:52;;;;;;;;;;;;;;;28.76;34.56;101079.16;5038309;28;1128;-29
2023/09/03 02:37:18;;;;;;;;;;;;;;;28.74;34.53;101079.34;5037571;28;1131;-26
2023/09/03 02:39:44;;;;;;;;;;;;;;;28.68;34.52;101080.09;5038454;28;1158;-30
2023/09/03 02:42:09;;;;;;;;;;;;;;;28.67;34.93;101073.00;5036498;28;1130;-28
2023/09/03 02:44:35;;;;;;;;;;;;;;;28.67;34.48;101079.25;5038132;28;1115;-28
2023/09/03 02:47:00;;;;;;;;;;;;;;;28.64;34.88;101079.63;5035966;28;2247;-28
2023/09/03 02:49:26;;;;;;;;;;;;;;;28.64;34.84;101086.91;5037816;28;1019;-28
2023/09/03 02:51:51;;;;;;;;;;;;;;;28.74;34.62;101082.06;5037838;28;1082;-27
2023/09/03 02:54:18;;;;;;;;;;;;;;;28.66;34.66;101082.97;5037459;28;1125;-26
2023/09/03 02:56:44;;;;;;;;;;;;;;;28.74;34.41;101082.06;5036227;28;1154;-29
2023/09/03 02:59:10;;;;;;;;;;;;;;;28.73;34.67;101083.91;5037830;28;1044;-28
2023/09/03 03:01:35;;;;;;;;;;;;;;;28.77;34.57;101080.84;5036037;28;1313;-28
2023/09/03 03:04:01;;;;;;;;;;;;;;;28.76;34.81;101076.47;5020078;28;1167;-25
2023/09/03 03:06:26;;;;;;;;;;;;;;;28.64;34.91;101074.22;5037640;28;1905;-27
2023/09/03 03:08:52;;;;;;;;;;;;;;;28.67;34.65;101079.25;5037274;28;1102;-27
2023/09/03 03:11:18;;;;;;;;;;;;;;;28.73;34.47;101075.81;5036303;28;1303;-27
2023/09/03 03:13:52;;;;;;;;;;;;;;;28.67;34.67;101070.28;5036041;28;1123;-27
2023/09/03 03:16:19;;;;;;;;;;;;;;;28.69;34.90;101074.50;5022730;28;1390;-28
2023/09/03 03:18:48;;;;;;;;;;;;;;;28.55;34.76;101070.75;5035652;28;1191;-26
2023/09/03 03:21:19;;;;;;;;;;;;;;;28.07;35.36;101069.13;5036090;28;1200;-28
2023/09/03 03:23:46;;;;;;;;;;;;;;;27.70;35.85;101070.75;5035832;28;1156;-28
2023/09/03 03:26:12;;;;;;;;;;;;;;;27.57;35.84;101082.13;5035405;28;1973;-30
2023/09/03 03:28:38;;;;;;;;;;;;;;;27.42;36.60;101082.03;5035036;28;1187;-28
2023/09/03 03:31:10;;;;;;;;;;;;;;;27.53;36.29;101078.94;5035000;28;1291;-29
2023/09/03 03:33:39;;;;;;;;;;;;;;;26.58;37.94;101076.91;5035690;28;1144;-29
2023/09/03 03:36:06;;;;;;;;;;;;;;;26.03;38.87;101071.16;5035995;28;1119;-28
2023/09/03 03:38:31;;;;;;;;;;;;;;;25.75;38.72;101064.25;5035576;28;1293;-29
2023/09/03 03:41:07;;;;;;;;;;;;;;;25.89;38.45;101075.38;5035207;28;1058;-26
2023/09/03 03:43:33;;;;;;;;;;;;;;;25.75;38.89;101072.34;5035952;28;1350;-30
2023/09/03 03:45:59;;;;;;;;;;;;;;;25.37;39.43;101066.47;5035375;28;1906;-27
2023/09/03 03:48:26;;;;;;;;;;;;;;;25.29;39.86;101076.22;5035397;28;1209;-27
2023/09/03 03:50:55;;;;;;;;;;;;;;;25.40;40.19;101077.78;5036519;28;928;-32
2023/09/03 03:53:20;;;;;;;;;;;;;;;25.25;40.39;101077.56;5036691;28;1071;-30
2023/09/03 03:55:46;;;;;;;;;;;;;;;25.07;40.78;101089.22;5035120;28;1198;-27
2023/09/03 03:58:11;;;;;;;;;;;;;;;25.41;40.55;101076.75;5036675;28;1133;-28
2023/09/03 04:00:37;;;;;;;;;;;;;;;25.88;38.96;101079.06;5055010;28;1288;-31
2023/09/03 04:03:03;;;;;;;;;;;;;;;25.58;39.73;101071.41;5076470;28;1095;-28
2023/09/03 04:05:28;;;;;;;;;;;;;;;25.95;39.28;101071.16;5076607;28;1032;-26
2023/09/03 04:07:54;;;;;;;;;;;;;;;26.96;36.82;101068.19;5076297;28;1905;-30
2023/09/03 04:10:20;;;;;;;;;;;;;;;27.33;36.82;101068.56;5065567;28;1051;-30
2023/09/03 04:12:45;;;;;;;;;;;;;;;27.67;36.16;101074.63;5056612;28;1225;-30
2023/09/03 04:15:11;;;;;;;;;;;;;;;27.74;36.06;101067.50;5058644;28;872;-31
2023/09/03 04:17:36;;;;;;;;;;;;;;;27.79;36.13;101072.41;5038301;28;1187;-31
2023/09/03 04:20:02;;;;;;;;;;;;;;;27.96;35.85;101069.56;5049756;28;1340;-26
2023/09/03 04:22:28;;;;;;;;;;;;;;;28.02;35.99;101073.41;5058473;28;1191;-31
2023/09/03 04:24:56;;;;;;;;;;;;;;;28.02;36.14;101068.00;5058497;28;1136;-29
2023/09/03 04:27:21;;;;;;;;;;;;;;;28.07;36.14;101065.59;5057882;28;1910;-27
2023/09/03 04:29:47;;;;;;;;;;;;;;;28.14;36.13;101071.97;5057976;28;1036;-27
2023/09/03 04:32:13;;;;;;;;;;;;;;;28.19;36.21;101066.84;5057680;28;1126;-28
2023/09/03 04:34:39;;;;;;;;;;;;;;;28.17;35.97;101063.47;5046949;28;1339;-30
2023/09/03 04:37:05;;;;;;;;;;;;;;;28.29;36.06;101071.16;5054323;28;1064;-29
2023/09/03 04:39:31;;;;;;;;;;;;;;;28.24;36.23;101061.69;5048953;28;1229;-28
2023/09/03 04:41:57;;;;;;;;;;;;;;;28.32;35.92;101054.53;5056316;28;1150;-29
2023/09/03 04:44:23;;;;;;;;;;;;;;;28.26;36.04;101056.09;5061985;28;1138;-27
2023/09/03 04:46:50;;;;;;;;;;;;;;;28.24;36.35;101045.47;5061854;28;1957;-29
2023/09/03 04:49:18;;;;;;;;;;;;;;;28.30;36.61;101053.88;5061924;28;1212;-34
2023/09/03 04:51:44;;;;;;;;;;;;;;;28.29;36.46;101054.91;5072814;28;1192;-28
2023/09/03 04:54:11;;;;;;;;;;;;;;;28.29;36.35;101053.06;5058601;28;1188;-27
2023/09/03 04:56:37;;;;;;;;;;;;;;;28.34;36.14;101050.66;5042192;28;1202;-26
2023/09/03 04:59:03;;;;;;;;;;;;;;;28.43;36.11;101053.28;5033685;28;1343;-28
2023/09/03 05:01:28;;;;;;;;;;;;;;;28.25;36.55;101043.63;5061801;28;1120;-29
2023/09/03 05:03:56;;;;;;;;;;;;;;;28.29;36.43;101039.53;5053852;28;1318;-28
2023/09/03 05:06:22;;;;;;;;;;;;;;;28.36;36.46;101039.66;5056512;28;1910;-32
2023/09/03 05:08:51;;;;;;;;;;;;;;;28.38;36.38;101047.59;5053915;28;1234;-29
2023/09/03 05:11:18;;;;;;;;;;;;;;;28.40;36.64;101046.38;5074635;28;1082;-29
2023/09/03 05:13:45;;;;;;;;;;;;;;;28.47;36.51;101054.59;5061868;28;1397;-28
2023/09/03 05:16:12;;;;;;;;;;;;;;;28.63;35.79;101052.75;5047799;28;1281;-31
2023/09/03 05:18:38;;;;;;;;;;;;;;;28.48;36.14;101051.72;5061549;28;1318;-26
2023/09/03 05:21:10;;;;;;;;;;;;;;;28.46;36.55;101053.75;5079431;28;1289;-29
2023/09/03 05:23:36;;;;;;;;;;;;;;;28.46;36.40;101051.03;5061075;28;1218;-26
2023/09/03 05:26:02;;;;;;;;;;;;;;;28.55;36.16;101049.09;5061383;28;1905;-27
2023/09/03 05:28:28;;;;;;;;;;;;;;;28.72;35.63;101043.50;5052090;28;1337;-26
2023/09/03 05:30:53;;;;;;;;;;;;;;;28.59;36.38;101049.56;5044003;28;1194;-28
2023/09/03 05:33:19;;;;;;;;;;;;;;;28.55;36.45;101057.22;5061198;28;1143;-29
2023/09/03 05:35:45;;;;;;;;;;;;;;;28.53;36.46;101055.75;5055600;28;1351;-27
2023/09/03 05:38:11;;;;;;;;;;;;;;;28.55;36.52;101050.97;5071408;28;1103;-26
2023/09/03 05:40:37;;;;;;;;;;;;;;;28.56;36.45;101050.78;5060113;28;1185;-29
2023/09/03 05:43:02;;;;;;;;;;;;;;;28.60;36.27;101052.09;5074221;28;1081;-30
2023/09/03 05:45:28;;;;;;;;;;;;;;;28.63;36.39;101056.28;5060634;28;1162;-28
2023/09/03 05:47:54;;;;;;;;;;;;;;;28.71;36.38;101048.06;5059159;28;1971;-32
2023/09/03 05:50:21;;;;;;;;;;;;;;;28.60;36.47;101046.69;5049737;28;1357;-27
2023/09/03 05:52:47;;;;;;;;;;;;;;;28.73;35.62;101053.28;5077731;28;1167;-29
2023/09/03 05:55:13;;;;;;;;;;;;;;;28.62;35.58;101054.63;5060821;28;1134;-28
2023/09/03 05:57:40;;;;;;;;;;;;;;;28.71;35.40;101055.38;5060794;28;1122;-30
2023/09/03 06:00:06;;;;;;;;;;;;;;;28.75;35.75;101055.81;5060421;28;1379;-27
2023/09/03 06:02:35;;;;;;;;;;;;;;;28.77;35.40;101046.50;5063964;28;1375;-29
2023/09/03 06:05:02;;;;;;;;;;;;;;;28.71;35.57;101052.66;5051740;28;1331;-31
2023/09/03 06:07:27;;;;;;;;;;;;;;;28.78;35.50;101045.47;5056682;28;1914;-28
2023/09/03 06:09:53;;;;;;;;;;;;;;;28.82;35.33;101059.47;5069789;28;1225;-27
2023/09/03 06:12:18;;;;;;;;;;;;;;;28.85;35.28;101054.53;5074384;28;1063;-28
2023/09/03 06:14:44;;;;;;;;;;;;;;;28.76;35.34;101052.91;5078306;28;1074;-29
2023/09/03 06:17:10;;;;;;;;;;;;;;;28.73;35.38;101061.41;5045042;28;1039;-29
2023/09/03 06:19:35;;;;;;;;;;;;;;;28.78;35.28;101052.75;5058152;28;1135;-32
2023/09/03 06:22:01;;;;;;;;;;;;;;;28.69;35.24;101052.00;5060357;28;1166;-27
2023/09/03 06:24:27;;;;;;;;;;;;;;;28.87;35.59;101064.31;5078433;28;1122;-27
2023/09/03 06:26:52;;;;;;;;;;;;;;;28.90;35.67;101062.06;5076176;28;1910;-28
2023/09/03 06:29:18;;;;;;;;;;;;;;;28.90;35.21;101064.78;5058275;28;1147;-29
2023/09/03 06:31:43;;;;;;;;;;;;;;;28.79;35.69;101057.97;5057841;28;1153;-29
2023/09/03 06:34:09;;;;;;;;;;;;;;;28.92;35.62;101065.44;5078501;28;1102;-28
2023/09/03 06:36:34;;;;;;;;;;;;;;;28.81;35.97;101057.78;5077755;28;1114;-29
2023/09/03 06:39:00;;;;;;;;;;;;;;;28.90;35.87;101063.94;5064519;28;1074;-27
2023/09/03 06:41:26;;;;;;;;;;;;;;;28.89;35.68;101068.53;5066410;28;1015;-27
2023/09/03 06:43:52;;;;;;;;;;;;;;;28.91;36.05;101068.34;5076292;28;1110;-28
2023/09/03 06:46:18;;;;;;;;;;;;;;;28.88;36.04;101066.00;5077996;28;1914;-26
2023/09/03 06:48:43;;;;;;;;;;;;;;;29.03;35.76;101071.44;5077665;28;1094;-27
2023/09/03 06:51:10;;;;;;;;;;;;;;;29.02;35.99;101067.91;5074169;28;1333;-27
2023/09/03 06:53:35;;;;;;;;;;;;;;;29.01;35.92;101063.47;5064381;28;1055;-27
2023/09/03 06:56:01;;;;;;;;;;;;;;;29.01;36.01;101068.09;5077380;28;1142;-26
2023/09/03 06:58:26;;;;;;;;;;;;;;;29.02;36.30;101067.03;5077326;28;1122;-25
2023/09/03 07:00:52;;;;;;;;;;;;;;;29.07;36.05;101065.47;5059881;28;1186;-26
2023/09/03 07:03:18;;;;;;;;;;;;;;;29.05;36.21;101063.94;5067885;28;1039;-28
2023/09/03 07:05:43;;;;;;;;;;;;;;;29.00;36.86;101061.81;5060769;28;1014;-28
2023/09/03 07:08:09;;;;;;;;;;;;;;;29.17;36.68;101067.03;5062135;28;1914;-27
2023/09/03 07:10:36;;;;;;;;;;;;;;;29.09;36.72;101066.09;5077173;28;1155;-28
2023/09/03 07:13:02;;;;;;;;;;;;;;;29.18;36.30;101066.84;5077459;28;1195;-29
2023/09/03 07:15:28;;;;;;;;;;;;;;;29.05;36.75;101062.09;5076396;28;1050;-26
2023/09/03 07:17:53;;;;;;;;;;;;;;;29.16;36.88;101065.34;5066189;28;1135;-31
2023/09/03 07:20:19;;;;;;;;;;;;;;;29.17;36.77;101064.31;5074629;28;1060;-32
2023/09/03 07:22:44;;;;;;;;;;;;;;;29.21;36.78;101063.75;5061038;28;1403;-28
2023/09/03 07:25:10;;;;;;;;;;;;;;;29.23;36.56;101060.03;5066579;28;1454;-26
2023/09/03 07:27:38;;;;;;;;;;;;;;;29.24;37.08;101061.69;5073917;28;1898;-31
2023/09/03 07:30:05;;;;;;;;;;;;;;;29.22;36.78;101064.59;5057069;28;1508;-26
2023/09/03 07:32:31;;;;;;;;;;;;;;;29.32;36.62;101062.44;5066267;28;1090;-29
2023/09/03 07:34:56;;;;;;;;;;;;;;;29.33;37.06;101063.25;5061104;28;1094;-31
2023/09/03 07:37:22;;;;;;;;;;;;;;;29.26;37.70;101060.44;5074425;28;1047;-27
2023/09/03 07:39:48;;;;;;;;;;;;;;;29.24;37.25;101057.13;5076760;28;1151;-33
2023/09/03 07:42:14;;;;;;;;;;;;;;;29.26;37.35;101059.63;5076891;28;1137;-26
2023/09/03 07:44:39;;;;;;;;;;;;;;;29.16;38.06;101060.75;5076478;28;1121;-30
2023/09/03 07:47:05;;;;;;;;;;;;;;;29.29;37.95;101057.38;5076362;28;1902;-26
2023/09/03 07:49:31;;;;;;;;;;;;;;;29.39;37.71;101062.50;5077063;28;1051;-26
2023/09/03 07:51:56;;;;;;;;;;;;;;;29.39;37.70;101065.22;5076199;28;1118;-28
2023/09/03 07:54:22;;;;;;;;;;;;;;;29.40;38.01;101063.31;5076471;28;1135;-30
2023/09/03 07:56:47;;;;;;;;;;;;;;;29.46;37.68;101062.56;5076553;28;1018;-31
2023/09/03 07:59:13;;;;;;;;;;;;;;;29.51;37.80;101062.00;5076412;28;1158;-27
2023/09/03 08:01:39;;;;;;;;;;;;;;;29.54;37.84;101053.47;5076544;28;1064;-33
2023/09/03 08:04:05;;;;;;;;;;;;;;;29.55;37.87;101056.00;5072436;28;1125;-27
2023/09/03 08:06:30;;;;;;;;;;;;;;;29.54;37.67;101053.47;5059232;28;1902;-27
2023/09/03 08:08:56;;;;;;;;;;;;;;;29.58;37.70;101061.03;5074790;28;1099;-31
2023/09/03 08:11:21;;;;;;;;;;;;;;;29.50;38.36;101053.03;5076948;28;1046;-29
2023/09/03 08:13:50;;;;;;;;;;;;;;;29.46;38.49;101055.28;5076535;28;1217;-30
2023/09/03 08:16:16;;;;;;;;;;;;;;;29.61;37.98;101050.88;5075631;28;1099;-29
2023/09/03 08:18:41;;;;;;;;;;;;;;;29.58;37.87;101061.03;5076054;28;1216;-30
2023/09/03 08:21:07;;;;;;;;;;;;;;;29.53;38.29;101052.63;5076252;28;1127;-30
2023/09/03 08:23:33;;;;;;;;;;;;;;;29.52;38.38;101053.66;5044834;28;1276;-28
2023/09/03 08:25:58;;;;;;;;;;;;;;;29.60;38.60;101051.88;5076132;28;1152;-29
2023/09/03 08:28:24;;;;;;;;;;;;;;;29.50;38.70;101053.03;5075914;28;1910;-30
2023/09/03 08:30:49;;;;;;;;;;;;;;;29.53;38.02;101047.22;5076310;28;1454;-27
2023/09/03 08:33:15;;;;;;;;;;;;;;;29.66;38.02;101049.25;5076111;28;1058;-28
2023/09/03 08:35:40;;;;;;;;;;;;;;;29.61;38.26;101049.00;5075789;28;1127;-29
2023/09/03 08:38:06;;;;;;;;;;;;;;;29.59;38.34;101048.34;5076427;28;1150;-27
2023/09/03 08:40:33;;;;;;;;;;;;;;;29.57;38.32;101034.13;5071985;28;983;-27
2023/09/03 08:42:58;;;;;;;;;;;;;;;29.65;37.90;101031.31;5066971;28;1109;-30
2023/09/03 08:45:25;;;;;;;;;;;;;;;29.63;38.26;101030.66;5075788;28;1051;-27
2023/09/03 08:47:50;;;;;;;;;;;;;;;29.70;38.04;101026.16;5058194;28;1977;-27
2023/09/03 08:50:16;;;;;;;;;;;;;;;29.77;37.62;101034.34;5058622;28;1075;-29
2023/09/03 08:52:42;;;;;;;;;;;;;;;29.72;38.39;101031.38;5058009;28;1119;-30
2023/09/03 08:55:09;;;;;;;;;;;;;;;29.76;37.99;101026.41;5062668;28;1097;-25
2023/09/03 08:57:34;;;;;;;;;;;;;;;29.74;37.80;101015.75;5076217;28;1194;-28
2023/09/03 09:00:06;;;;;;;;;;;;;;;29.84;37.87;101026.28;5075807;28;1184;-28
2023/09/03 09:02:32;;;;;;;;;;;;;;;29.92;37.16;101015.28;5075842;28;1103;-27
2023/09/03 09:04:57;;;;;;;;;;;;;;;29.93;37.37;101019.66;5062666;28;1070;-29
2023/09/03 09:07:24;;;;;;;;;;;;;;;29.82;37.83;101018.34;5066709;28;1910;-27
2023/09/03 09:09:49;;;;;;;;;;;;;;;29.80;37.73;101014.97;5062710;28;1106;-32
2023/09/03 09:12:38;;;;;;;;;;;;;;;29.79;37.39;101018.72;5075983;28;1151;-25
2023/09/03 09:15:04;;;;;;;;;;;;;;;29.84;37.70;101015.44;5038240;28;1186;-28
2023/09/03 09:17:56;;;;;;;;;;;;;;;29.81;37.79;101015.81;5074754;28;1031;-27
2023/09/03 09:20:22;;;;;;;;;;;;;;;29.76;37.78;101019.09;5053048;28;1225;-26
2023/09/03 09:22:48;;;;;;;;;;;;;;;29.93;37.48;101013.41;5073640;28;1055;-26
2023/09/03 09:25:18;;;;;;;;;;;;;;;29.74;37.92;101013.06;5075887;28;1035;-29
2023/09/03 09:27:44;;;;;;;;;;;;;;;29.84;37.42;101007.28;5076792;28;1977;-27
2023/09/03 09:30:10;;;;;;;;;;;;;;;29.99;37.43;101009.06;5079233;28;908;-28
2023/09/03 09:32:35;;;;;;;;;;;;;;;30.04;37.35;101006.63;5079256;28;1194;-29
2023/09/03 09:35:01;;;;;;;;;;;;;;;30.12;37.19;101002.91;5079209;28;1158;-28
2023/09/03 09:37:26;;;;;;;;;;;;;;;30.07;37.09;100995.38;5073843;28;1039;-27
2023/09/03 09:39:52;;;;;;;;;;;;;;;29.96;37.57;101004.03;5053103;28;1338;-26
2023/09/03 09:42:20;;;;;;;;;;;;;;;29.85;37.54;101008.97;5073422;28;1182;-27
2023/09/03 09:44:49;;;;;;;;;;;;;;;30.05;37.21;101001.00;5059092;28;1162;-27
2023/09/03 09:47:15;;;;;;;;;;;;;;;30.01;37.19;101012.44;5058624;28;1902;-29
2023/09/03 09:49:41;;;;;;;;;;;;;;;29.96;37.61;101014.91;5059104;28;1123;-26
2023/09/03 09:52:07;;;;;;;;;;;;;;;29.97;37.08;101008.41;5078607;28;1040;-30
2023/09/03 09:54:39;;;;;;;;;;;;;;;29.80;37.61;101001.41;5060955;28;917;-28
2023/09/03 09:57:23;;;;;;;;;;;;;;;29.81;36.98;101013.13;5079148;28;1103;-29
2023/09/03 09:59:52;;;;;;;;;;;;;;;29.84;36.95;101011.88;5078724;28;1178;-27
2023/09/03 10:02:19;;;;;;;;;;;;;;;29.84;36.87;101007.28;5078269;28;1054;-30
2023/09/03 10:04:48;;;;;;;;;;;;;;;29.91;36.63;101004.63;5078150;28;1055;-28
2023/09/03 10:07:13;;;;;;;;;;;;;;;29.88;36.49;101005.84;5078755;28;1909;-30
2023/09/03 10:09:39;;;;;;;;;;;;;;;29.94;36.94;101001.53;5078191;28;1079;-29
2023/09/03 10:12:05;;;;;;;;;;;;;;;30.10;36.49;100996.81;5078302;28;1046;-30
2023/09/03 10:14:31;;;;;;;;;;;;;;;30.14;36.36;100988.13;5078117;28;1015;-32
2023/09/03 10:16:57;;;;;;;;;;;;;;;30.18;35.98;100988.53;5078238;28;1099;-31
2023/09/03 10:19:23;;;;;;;;;;;;;;;30.19;35.67;100993.78;5042349;28;1067;-26
2023/09/03 10:21:49;;;;;;;;;;;;;;;30.24;36.01;100990.50;5069706;28;1137;-29
2023/09/03 10:24:17;;;;;;;;;;;;;;;30.17;36.25;100987.72;5078416;28;1078;-28
2023/09/03 10:26:44;;;;;;;;;;;;;;;30.26;36.28;100993.84;5067720;28;1944;-31
2023/09/03 10:29:10;;;;;;;;;;;;;;;30.37;35.58;100986.19;5071056;28;1430;-28
2023/09/03 10:31:36;;;;;;;;;;;;;;;30.30;35.93;100989.72;5058285;28;1107;-32
2023/09/03 10:34:01;;;;;;;;;;;;;;;30.35;35.55;100978.25;5057179;28;1087;-33
2023/09/03 10:36:27;;;;;;;;;;;;;;;30.44;35.59;100976.22;5078199;28;1548;-27
2023/09/03 10:38:53;;;;;;;;;;;;;;;30.37;35.42;100975.34;5077230;28;1035;-27
2023/09/03 10:41:18;;;;;;;;;;;;;;;30.39;35.37;100973.25;5077472;28;1111;-27
2023/09/03 10:43:45;;;;;;;;;;;;;;;30.50;35.53;100977.28;5064353;28;1102;-27
2023/09/03 10:46:11;;;;;;;;;;;;;;;30.57;35.62;100969.16;5064034;28;1902;-29
2023/09/03 10:48:37;;;;;;;;;;;;;;;30.42;35.97;100960.13;5077358;28;1094;-27
2023/09/03 10:51:02;;;;;;;;;;;;;;;30.39;36.01;100959.69;5077468;28;1142;-27
2023/09/03 10:53:34;;;;;;;;;;;;;;;30.39;36.50;100963.25;5077060;28;1149;-30
2023/09/03 10:56:06;;;;;;;;;;;;;;;30.36;36.47;100951.97;5077213;28;1158;-29
2023/09/03 10:58:31;;;;;;;;;;;;;;;30.38;35.89;100956.13;5077443;28;1107;-32
2023/09/03 11:01:16;;;;;;;;;;;;;;;30.20;36.14;100953.94;5077537;28;1201;-30
2023/09/03 11:03:46;;;;;;;;;;;;;;;30.16;36.30;100955.38;5077340;28;1161;-30
2023/09/03 11:06:16;;;;;;;;;;;;;;;30.05;36.54;100945.88;5071948;28;1979;-28
2023/09/03 11:08:41;;;;;;;;;;;;;;;30.10;36.47;100946.13;5066926;28;1190;-28
2023/09/03 11:11:09;;;;;;;;;;;;;;;30.12;36.07;100946.78;5064597;28;1195;-29
2023/09/03 11:13:34;;;;;;;;;;;;;;;30.08;36.76;100940.06;5056866;28;1264;-29
2023/09/03 11:16:00;;;;;;;;;;;;;;;30.19;36.47;100936.81;5076545;28;1063;-27
2023/09/03 11:18:26;;;;;;;;;;;;;;;30.01;36.73;100947.34;5064450;28;924;-30
2023/09/03 11:20:52;;;;;;;;;;;;;;;30.03;36.36;100946.09;5076554;28;1162;-28
2023/09/03 11:23:18;;;;;;;;;;;;;;;30.16;36.08;100939.09;5077024;28;1118;-26
2023/09/03 11:25:43;;;;;;;;;;;;;;;30.14;35.64;100935.72;5076752;28;1091;-26
2023/09/03 11:28:12;;;;;;;;;;;;;;;30.24;35.51;100929.97;5077066;28;1913;-27
2023/09/03 11:30:38;;;;;;;;;;;;;;;30.06;36.01;100929.41;5071064;28;1377;-27
2023/09/03 11:33:08;;;;;;;;;;;;;;;30.18;34.91;100929.69;5057137;28;1154;-26
2023/09/03 11:35:42;;;;;;;;;;;;;;;30.27;34.95;100935.00;5076353;28;1099;-29
2023/09/03 11:38:07;;;;;;;;;;;;;;;30.36;34.51;100938.38;5076961;28;1039;-29
2023/09/03 11:40:33;;;;;;;;;;;;;;;30.39;34.22;100940.69;5076334;28;1174;-27
2023/09/03 11:42:58;;;;;;;;;;;;;;;30.40;34.56;100943.22;5076378;28;950;-33
2023/09/03 11:45:24;;;;;;;;;;;;;;;30.33;34.52;100945.03;5058553;28;1099;-27
2023/09/03 11:47:50;;;;;;;;;;;;;;;30.25;34.43;100947.91;5058615;28;1910;-29
2023/09/03 11:50:16;;;;;;;;;;;;;;;30.18;35.21;100942.41;5076342;28;1183;-27
2023/09/03 11:52:48;;;;;;;;;;;;;;;30.09;34.90;100933.63;5076373;28;1101;-29
2023/09/03 11:55:13;;;;;;;;;;;;;;;30.19;35.06;100936.81;5070745;28;1075;-30
2023/09/03 11:57:39;;;;;;;;;;;;;;;30.24;33.97;100935.41;5061927;28;1107;-31
2023/09/03 12:00:06;;;;;;;;;;;;;;;30.19;34.07;100935.97;5043193;28;1131;-28
2023/09/03 12:02:32;;;;;;;;;;;;;;;30.12;34.37;100932.38;5035314;28;1191;-31
2023/09/03 12:04:58;;;;;;;;;;;;;;;30.11;34.00;100931.56;5035016;28;1104;-30
2023/09/03 12:07:23;;;;;;;;;;;;;;;30.11;34.69;100931.56;5029046;28;1902;-30
2023/09/03 12:09:51;;;;;;;;;;;;;;;30.12;34.66;100922.38;5035245;28;1601;-31
2023/09/03 12:12:18;;;;;;;;;;;;;;;30.14;34.68;100917.59;5035364;28;1221;-27
2023/09/03 12:14:43;;;;;;;;;;;;;;;30.04;34.84;100915.22;5036248;28;1078;-29
2023/09/03 12:17:09;;;;;;;;;;;;;;;30.52;33.69;100901.91;5035399;28;1135;-27
2023/09/03 12:19:38;;;;;;;;;;;;;;;30.54;33.62;100903.41;5036237;28;969;-30
2023/09/03 12:22:04;;;;;;;;;;;;;;;30.39;33.96;100900.00;5023334;28;1037;-31
2023/09/03 12:24:29;;;;;;;;;;;;;;;30.49;34.53;100896.91;5036077;28;1146;-29
2023/09/03 12:27:04;;;;;;;;;;;;;;;30.58;33.85;100894.84;5035173;28;1975;-27
2023/09/03 12:29:36;;;;;;;;;;;;;;;30.34;33.94;100900.59;5036070;28;1099;-27
2023/09/03 12:32:02;;;;;;;;;;;;;;;30.30;34.94;100902.03;5027665;28;1071;-29
2023/09/03 12:34:32;;;;;;;;;;;;;;;30.30;34.60;100893.88;5032173;28;1166;-30
2023/09/03 12:36:58;;;;;;;;;;;;;;;30.24;34.94;100898.25;5036402;28;1107;-30
2023/09/03 12:39:42;;;;;;;;;;;;;;;29.98;35.67;100893.50;5034915;28;1194;-29
2023/09/03 12:42:08;;;;;;;;;;;;;;;30.08;35.12;100885.81;5032316;28;1051;-27
2023/09/03 12:44:33;;;;;;;;;;;;;;;30.01;35.27;100888.47;5027212;28;1059;-32